Time;durP1;ratioP1;P1;durP2;ratioP2;P2;SDS_P1;SDS_P2;PMS_P1;PMS_P2;Temp;Humidity;BMP_temperature;BMP_pressure;BME280_temperature;BME280_humidity;BME280_pressure;Samples;Min_cycle;Max_cycle;Signal;HPM_P1;HPM_P2
2021/12/23 00:01:17;;;;;;;21.30;16.50;;;8.80;78.00;;;;;;4879582;29;20029;-79
2021/12/23 00:03:42;;;;;;;21.52;16.30;;;8.80;77.90;;;;;;4881042;29;20029;-78
2021/12/23 00:06:08;;;;;;;21.00;16.45;;;8.80;77.80;;;;;;4879574;29;20520;-78
2021/12/23 00:08:33;;;;;;;21.25;15.77;;;8.80;77.80;;;;;;4879517;29;20063;-78
2021/12/23 00:10:59;;;;;;;20.88;16.33;;;8.70;77.80;;;;;;4879425;29;20060;-77
2021/12/23 00:13:25;;;;;;;20.27;15.85;;;8.70;77.80;;;;;;4880334;29;20032;-78
2021/12/23 00:23:46;;;;;;;20.50;15.85;;;8.80;77.70;;;;;;4880732;29;20044;-78
2021/12/23 00:26:12;;;;;;;19.63;15.30;;;8.70;77.70;;;;;;4879193;29;20397;-77
2021/12/23 00:28:37;;;;;;;21.85;15.40;;;8.70;77.80;;;;;;4878656;29;20040;-78
2021/12/23 00:31:03;;;;;;;18.52;14.75;;;8.70;77.90;;;;;;4879190;29;20580;-78
2021/12/23 00:33:29;;;;;;;18.58;14.50;;;8.70;77.80;;;;;;4878838;29;20453;-78
2021/12/23 00:35:55;;;;;;;20.83;16.40;;;8.80;77.90;;;;;;4879164;29;20033;-78
2021/12/23 00:38:32;;;;;;;19.15;14.93;;;8.70;77.90;;;;;;4879105;29;20021;-77
2021/12/23 00:41:00;;;;;;;18.42;14.88;;;8.70;78.00;;;;;;4880128;29;20025;-77
2021/12/23 00:43:25;;;;;;;20.42;14.70;;;8.80;78.10;;;;;;4878510;29;20040;-77
2021/12/23 00:45:51;;;;;;;19.33;14.98;;;8.70;78.10;;;;;;4879014;29;20025;-78
2021/12/23 00:48:17;;;;;;;17.95;14.30;;;8.80;78.20;;;;;;4879071;29;20400;-78
2021/12/23 00:50:44;;;;;;;18.23;13.93;;;8.70;78.10;;;;;;4878931;29;20025;-78
2021/12/23 00:53:10;;;;;;;18.02;13.95;;;8.70;78.10;;;;;;4878882;29;20112;-78
2021/12/23 00:55:37;;;;;;;18.55;13.68;;;8.70;78.10;;;;;;4879673;29;20485;-78
2021/12/23 00:58:03;;;;;;;17.15;13.98;;;8.80;78.20;;;;;;4878855;29;20449;-78
2021/12/23 01:00:30;;;;;;;18.08;14.15;;;8.70;78.20;;;;;;4879792;29;20694;-78
2021/12/23 01:02:58;;;;;;;17.23;13.82;;;8.70;78.20;;;;;;4878720;29;20057;-78
2021/12/23 01:05:25;;;;;;;18.55;13.93;;;8.70;78.20;;;;;;4879559;29;20032;-78
2021/12/23 01:07:50;;;;;;;16.40;13.43;;;8.70;78.10;;;;;;4878582;29;20025;-78
2021/12/23 01:10:17;;;;;;;17.40;13.32;;;8.70;78.10;;;;;;4879769;29;20029;-79
2021/12/23 01:12:49;;;;;;;17.02;12.77;;;8.70;77.90;;;;;;4878580;29;20020;-78
2021/12/23 01:17:56;;;;;;;19.05;13.57;;;8.70;77.90;;;;;;4879990;29;20025;-77
2021/12/23 01:20:31;;;;;;;17.33;13.13;;;8.70;77.90;;;;;;4878219;29;20032;-78
2021/12/23 01:23:02;;;;;;;18.95;13.63;;;8.70;77.90;;;;;;4878283;29;20119;-78
2021/12/23 01:25:29;;;;;;;16.33;12.93;;;8.70;77.90;;;;;;4879334;29;20051;-78
2021/12/23 01:27:55;;;;;;;17.25;13.15;;;8.70;77.90;;;;;;4878958;29;20056;-77
2021/12/23 01:30:21;;;;;;;17.35;13.25;;;8.70;77.90;;;;;;4877947;29;20041;-79
2021/12/23 01:32:50;;;;;;;16.75;12.50;;;8.70;77.80;;;;;;4878219;29;20069;-78
2021/12/23 01:35:16;;;;;;;17.25;12.43;;;8.70;77.80;;;;;;4877939;29;20060;-78
2021/12/23 01:37:43;;;;;;;16.35;12.90;;;8.70;77.90;;;;;;4879269;29;20031;-78
2021/12/23 01:40:11;;;;;;;15.68;12.77;;;8.70;77.90;;;;;;4879345;29;20084;-78
2021/12/23 01:42:36;;;;;;;15.52;12.90;;;8.70;78.00;;;;;;4879134;29;20516;-78
2021/12/23 01:45:08;;;;;;;17.80;12.48;;;8.70;78.10;;;;;;4877849;29;20033;-78
2021/12/23 01:47:33;;;;;;;16.73;12.55;;;8.70;78.10;;;;;;4877916;29;20032;-79
2021/12/23 01:49:59;;;;;;;15.55;12.18;;;8.70;78.10;;;;;;4878862;29;20573;-78
2021/12/23 01:52:25;;;;;;;16.25;13.05;;;8.70;78.20;;;;;;4879337;29;20040;-78
2021/12/23 01:54:50;;;;;;;16.02;12.43;;;8.60;78.10;;;;;;4877367;29;20475;-78
2021/12/23 01:57:17;;;;;;;16.50;12.50;;;8.70;78.20;;;;;;4877350;29;20561;-79
2021/12/23 01:59:42;;;;;;;16.13;12.55;;;8.70;78.10;;;;;;4877774;29;20039;-78
2021/12/23 02:02:08;;;;;;;18.15;13.30;;;8.70;78.20;;;;;;4877811;29;20029;-78
2021/12/23 02:04:34;;;;;;;17.20;13.20;;;8.70;78.20;;;;;;4877496;29;20029;-78
2021/12/23 02:06:59;;;;;;;17.38;13.10;;;8.70;78.30;;;;;;4877617;29;20119;-78
2021/12/23 02:09:25;;;;;;;16.17;12.88;;;8.70;78.30;;;;;;4877826;29;20116;-79
2021/12/23 02:11:50;;;;;;;15.68;12.93;;;8.70;78.30;;;;;;4879016;29;20394;-78
2021/12/23 02:14:18;;;;;;;16.33;12.98;;;8.70;78.30;;;;;;4877394;29;20048;-78
2021/12/23 02:16:43;;;;;;;16.05;13.18;;;8.70;78.30;;;;;;4877670;29;20052;-78
2021/12/23 02:19:20;;;;;;;16.60;13.15;;;8.70;78.40;;;;;;4878777;29;20025;-78
2021/12/23 02:21:47;;;;;;;15.77;12.80;;;8.70;78.40;;;;;;4878706;29;20033;-78
2021/12/23 02:24:13;;;;;;;16.15;12.98;;;8.70;78.40;;;;;;4877369;29;20033;-77
2021/12/23 02:26:41;;;;;;;15.98;12.57;;;8.70;78.40;;;;;;4877416;29;20037;-78
2021/12/23 02:29:07;;;;;;;16.23;12.70;;;8.70;78.40;;;;;;4877384;29;20029;-78
2021/12/23 02:31:33;;;;;;;16.25;13.18;;;8.70;78.40;;;;;;4878483;29;20033;-78
2021/12/23 02:33:59;;;;;;;16.75;13.05;;;8.70;78.50;;;;;;4878452;29;20029;-78
2021/12/23 02:36:26;;;;;;;16.52;13.30;;;8.70;78.50;;;;;;4877529;29;20040;-78
2021/12/23 02:38:52;;;;;;;15.55;12.57;;;8.70;78.50;;;;;;4877516;29;20378;-78
2021/12/23 02:41:18;;;;;;;16.70;12.75;;;8.70;78.60;;;;;;4877493;29;20032;-78
2021/12/23 02:43:43;;;;;;;16.13;12.88;;;8.70;78.60;;;;;;4877068;29;20037;-78
2021/12/23 02:46:09;;;;;;;15.70;12.75;;;8.70;78.60;;;;;;4877343;29;20041;-78
2021/12/23 02:48:36;;;;;;;17.38;13.77;;;8.70;78.70;;;;;;4878406;29;20056;-78
2021/12/23 02:51:11;;;;;;;16.50;12.27;;;8.70;78.60;;;;;;4877118;29;20057;-78
2021/12/23 02:53:37;;;;;;;17.38;12.95;;;8.70;78.60;;;;;;4877213;29;20033;-78
2021/12/23 02:56:05;;;;;;;14.75;11.65;;;8.60;78.60;;;;;;4877118;29;20033;-77
2021/12/23 02:58:31;;;;;;;15.20;12.15;;;8.70;78.60;;;;;;4877236;29;20077;-78
2021/12/23 03:00:59;;;;;;;18.17;13.35;;;8.70;78.60;;;;;;4877087;29;20029;-78
2021/12/23 03:03:25;;;;;;;15.27;12.20;;;8.70;78.60;;;;;;4876942;29;20021;-79
2021/12/23 03:05:56;;;;;;;16.63;13.40;;;8.70;78.70;;;;;;4877263;29;20405;-78
2021/12/23 03:08:40;;;;;;;15.80;12.57;;;8.70;78.70;;;;;;4880251;29;20718;-78
2021/12/23 03:11:08;;;;;;;15.45;12.38;;;8.70;78.90;;;;;;4880583;29;20041;-79
2021/12/23 03:13:35;;;;;;;15.65;12.30;;;8.70;78.90;;;;;;4880586;29;20033;-78
2021/12/23 03:16:01;;;;;;;14.75;11.63;;;8.70;79.00;;;;;;4881802;29;20029;-77
2021/12/23 03:18:27;;;;;;;14.95;11.90;;;8.70;79.00;;;;;;4880357;29;20029;-78
2021/12/23 03:20:54;;;;;;;16.55;12.43;;;8.70;79.00;;;;;;4881630;29;20565;-78
2021/12/23 03:23:19;;;;;;;17.40;12.88;;;8.70;79.00;;;;;;4881524;29;20477;-78
2021/12/23 03:25:45;;;;;;;15.85;12.18;;;8.70;79.00;;;;;;4881531;29;20021;-79
2021/12/23 03:28:11;;;;;;;16.02;12.50;;;8.70;79.00;;;;;;4880208;29;20028;-78
2021/12/23 03:30:36;;;;;;;16.65;12.55;;;8.70;79.10;;;;;;4881197;29;20037;-78
2021/12/23 03:33:02;;;;;;;15.45;11.95;;;8.70;79.00;;;;;;4881407;29;20025;-78
2021/12/23 03:35:28;;;;;;;14.95;11.35;;;8.70;79.00;;;;;;4880119;29;20109;-78
2021/12/23 03:37:54;;;;;;;15.23;11.75;;;8.70;79.10;;;;;;4880317;29;20057;-78
2021/12/23 03:40:21;;;;;;;15.45;11.30;;;8.70;79.10;;;;;;4879995;29;20124;-79
2021/12/23 03:42:46;;;;;;;15.68;12.32;;;8.70;79.10;;;;;;4881340;29;20485;-78
2021/12/23 03:45:12;;;;;;;17.13;12.52;;;8.70;79.00;;;;;;4878975;29;20069;-76
2021/12/23 03:47:38;;;;;;;13.77;11.50;;;8.70;79.00;;;;;;4870710;29;20121;-78
2021/12/23 03:50:06;;;;;;;16.83;12.27;;;8.70;79.00;;;;;;4881029;29;20044;-78
2021/12/23 03:52:32;;;;;;;16.15;12.55;;;8.70;79.10;;;;;;4879849;29;20501;-78
2021/12/23 03:54:57;;;;;;;16.50;12.48;;;8.70;79.10;;;;;;4879634;29;20037;-79
2021/12/23 03:57:23;;;;;;;16.13;12.63;;;8.70;79.10;;;;;;4879759;29;20035;-78
2021/12/23 03:59:49;;;;;;;16.00;12.80;;;8.70;79.10;;;;;;4895286;29;20064;-77
2021/12/23 04:02:14;;;;;;;15.32;11.68;;;8.70;79.10;;;;;;4879916;29;20651;-78
2021/12/23 04:04:40;;;;;;;14.02;11.15;;;8.70;79.20;;;;;;4880752;29;20029;-79
2021/12/23 04:07:05;;;;;;;15.32;12.48;;;8.70;79.20;;;;;;4879548;29;20041;-79
2021/12/23 04:09:31;;;;;;;14.90;11.40;;;8.70;79.20;;;;;;4879600;29;20037;-78
2021/12/23 04:11:57;;;;;;;14.27;11.50;;;8.70;79.20;;;;;;4880762;29;20056;-78
2021/12/23 04:14:22;;;;;;;15.40;12.02;;;8.70;79.10;;;;;;4880515;29;20383;-78
2021/12/23 04:16:48;;;;;;;15.52;12.05;;;8.70;79.10;;;;;;4879551;29;20021;-78
2021/12/23 04:19:13;;;;;;;15.60;12.32;;;8.70;79.10;;;;;;4878638;29;20041;-78
2021/12/23 04:21:40;;;;;;;15.82;11.50;;;8.70;79.10;;;;;;4894734;29;20161;-78
2021/12/23 04:24:06;;;;;;;15.00;11.90;;;8.70;78.90;;;;;;4880427;29;20112;-78
2021/12/23 04:26:32;;;;;;;15.10;11.80;;;8.70;78.80;;;;;;4879149;29;20037;-78
2021/12/23 04:28:58;;;;;;;14.35;11.35;;;8.70;78.90;;;;;;4894725;29;20044;-78
2021/12/23 04:31:24;;;;;;;15.05;12.25;;;8.70;78.90;;;;;;4880360;29;20501;-78
2021/12/23 04:33:52;;;;;;;15.30;12.00;;;8.60;79.30;;;;;;4879047;29;20024;-78
2021/12/23 04:36:18;;;;;;;15.13;11.75;;;8.60;78.80;;;;;;4880668;29;20029;-78
2021/12/23 04:38:45;;;;;;;15.05;11.73;;;8.70;78.90;;;;;;4879185;29;20412;-77
2021/12/23 04:41:12;;;;;;;15.07;12.32;;;8.70;78.80;;;;;;4880524;29;20624;-78
2021/12/23 04:43:38;;;;;;;14.27;11.50;;;8.60;78.60;;;;;;4878816;29;20037;-78
2021/12/23 04:46:04;;;;;;;14.73;12.13;;;8.60;78.40;;;;;;4878975;29;20033;-78
2021/12/23 04:48:30;;;;;;;16.48;12.57;;;8.60;78.20;;;;;;4878912;29;20029;-78
2021/12/23 04:50:56;;;;;;;14.95;12.25;;;8.60;78.10;;;;;;4879982;29;20449;-78
2021/12/23 04:53:22;;;;;;;16.27;12.32;;;8.60;78.10;;;;;;4878760;29;20040;-78
2021/12/23 04:55:48;;;;;;;15.55;12.00;;;8.60;78.00;;;;;;4880038;29;20032;-79
2021/12/23 04:58:14;;;;;;;15.18;11.93;;;8.60;78.10;;;;;;4878854;29;20120;-78
2021/12/23 05:00:42;;;;;;;15.68;12.57;;;8.70;78.30;;;;;;4879770;29;20108;-77
2021/12/23 05:03:08;;;;;;;15.73;12.30;;;8.60;78.40;;;;;;4894336;29;20444;-78
2021/12/23 05:05:33;;;;;;;15.40;12.10;;;8.70;78.40;;;;;;4879718;29;20021;-78
2021/12/23 05:07:59;;;;;;;15.38;12.15;;;8.60;78.40;;;;;;4878862;29;20021;-78
2021/12/23 05:10:26;;;;;;;16.38;12.52;;;8.60;78.40;;;;;;4878401;29;20029;-78
2021/12/23 05:12:51;;;;;;;15.57;12.05;;;8.60;79.00;;;;;;4878565;29;20108;-78
2021/12/23 05:15:19;;;;;;;16.35;13.00;;;8.60;78.60;;;;;;4893817;29;20162;-78
2021/12/23 05:17:46;;;;;;;15.95;13.20;;;8.60;78.60;;;;;;4878510;29;20081;-78
2021/12/23 05:20:14;;;;;;;15.43;12.30;;;8.60;78.50;;;;;;4879599;29;20576;-78
2021/12/23 05:22:39;;;;;;;15.18;12.27;;;8.60;78.50;;;;;;4878428;29;20094;-79
2021/12/23 05:25:07;;;;;;;15.18;12.23;;;8.60;78.50;;;;;;4878420;29;20029;-78
2021/12/23 05:27:32;;;;;;;16.65;12.85;;;8.60;78.50;;;;;;4879136;29;20036;-78
2021/12/23 05:32:26;;;;;;;15.65;12.50;;;8.60;78.50;;;;;;4894521;29;19966;-76
2021/12/23 05:34:51;;;;;;;16.48;13.00;;;8.60;78.60;;;;;;4892403;29;20060;-74
2021/12/23 05:37:17;;;;;;;17.17;13.45;;;8.60;78.50;;;;;;4892893;29;20940;-74
2021/12/23 05:39:43;;;;;;;17.38;13.43;;;8.60;78.60;;;;;;4885645;29;20036;-73
2021/12/23 05:42:09;;;;;;;18.42;14.40;;;8.60;78.60;;;;;;4880142;29;20029;-80
2021/12/23 05:44:34;;;;;;;21.63;16.85;;;8.60;78.60;;;;;;4874040;29;20033;-74
2021/12/23 05:47:00;;;;;;;26.00;20.83;;;8.60;78.60;;;;;;4874538;29;20239;-74
2021/12/23 05:49:25;;;;;;;28.23;21.70;;;8.60;78.50;;;;;;4875046;29;20040;-75
2021/12/23 05:51:51;;;;;;;27.90;21.45;;;8.60;78.50;;;;;;4889277;29;20040;-76
2021/12/23 05:54:17;;;;;;;25.05;20.27;;;8.60;78.40;;;;;;4873428;29;20025;-70
2021/12/23 05:56:42;;;;;;;27.80;22.17;;;8.60;78.40;;;;;;4889559;29;20028;-80
2021/12/23 05:59:08;;;;;;;28.70;22.02;;;8.60;78.80;;;;;;4874314;29;20037;-75
2021/12/23 06:01:33;;;;;;;32.72;21.08;;;8.60;78.20;;;;;;4882690;29;20153;-76
2021/12/23 06:03:59;;;;;;;32.90;20.98;;;8.60;77.60;;;;;;4873691;29;20065;-73
2021/12/23 06:06:25;;;;;;;36.60;21.88;;;8.60;77.50;;;;;;4873915;29;20047;-72
2021/12/23 06:08:50;;;;;;;28.13;21.83;;;8.60;77.70;;;;;;4870036;29;20700;-78
2021/12/23 06:11:16;;;;;;;31.88;21.95;;;8.60;77.20;;;;;;4884518;29;20070;-73
2021/12/23 06:13:42;;;;;;;35.08;23.15;;;8.60;77.20;;;;;;4873088;29;20112;-79
2021/12/23 06:16:08;;;;;;;29.13;21.58;;;8.60;77.50;;;;;;4862869;29;20025;-73
2021/12/23 06:18:33;;;;;;;28.95;21.08;;;8.60;76.20;;;;;;4856811;29;20379;-75
2021/12/23 06:20:59;;;;;;;31.00;21.95;;;8.50;76.20;;;;;;4856866;29;20037;-74
2021/12/23 06:23:25;;;;;;;29.63;20.83;;;8.50;76.30;;;;;;4874227;29;20064;-75
2021/12/23 06:25:51;;;;;;;28.63;21.67;;;8.50;76.70;;;;;;4873789;29;20396;-74
2021/12/23 06:28:16;;;;;;;29.52;21.05;;;8.50;77.20;;;;;;4873824;29;20025;-74
2021/12/23 06:30:42;;;;;;;29.05;21.33;;;8.50;77.40;;;;;;4875000;29;20029;-72
2021/12/23 06:33:08;;;;;;;27.73;21.33;;;8.60;77.70;;;;;;4874316;29;20438;-73
2021/12/23 06:35:33;;;;;;;28.20;21.13;;;8.60;77.80;;;;;;4873875;29;20140;-73
2021/12/23 06:38:05;;;;;;;25.10;21.40;;;8.60;78.00;;;;;;4875396;29;20489;-71
2021/12/23 06:40:31;;;;;;;22.67;18.58;;;8.60;78.20;;;;;;4874007;29;20040;-72
2021/12/23 06:42:57;;;;;;;24.00;18.75;;;8.50;76.10;;;;;;4876185;29;20037;-73
2021/12/23 06:45:22;;;;;;;26.50;19.98;;;8.50;74.90;;;;;;4877711;29;20031;-73
2021/12/23 06:47:48;;;;;;;24.73;19.35;;;8.50;75.50;;;;;;4878583;29;20416;-75
2021/12/23 06:50:16;;;;;;;25.60;19.63;;;8.50;76.30;;;;;;4878662;29;20033;-72
2021/12/23 06:52:42;;;;;;;28.20;18.80;;;8.50;77.00;;;;;;4877219;29;20054;-74
2021/12/23 06:55:11;;;;;;;25.25;17.88;;;8.40;73.80;;;;;;4878068;29;20025;-73
2021/12/23 06:57:37;;;;;;;23.05;18.35;;;8.40;74.40;;;;;;4876823;29;20025;-75
2021/12/23 07:00:06;;;;;;;23.73;18.40;;;8.40;75.10;;;;;;4876792;29;20029;-75
2021/12/23 07:02:33;;;;;;;23.17;18.13;;;8.40;75.70;;;;;;4878126;29;20048;-74
2021/12/23 07:04:59;;;;;;;21.85;18.27;;;8.40;76.20;;;;;;4876604;29;20127;-74
2021/12/23 07:07:28;;;;;;;23.10;18.35;;;8.40;76.60;;;;;;4876701;29;20479;-74
2021/12/23 07:09:54;;;;;;;24.48;19.08;;;8.50;76.80;;;;;;4877814;29;20025;-73
2021/12/23 07:12:21;;;;;;;22.50;18.30;;;8.50;76.90;;;;;;4876646;29;20077;-74
2021/12/23 07:14:46;;;;;;;22.42;18.80;;;8.50;77.10;;;;;;4876404;29;20044;-74
2021/12/23 07:17:12;;;;;;;23.25;18.95;;;8.50;77.30;;;;;;4876310;29;20052;-74
2021/12/23 07:19:37;;;;;;;22.88;18.02;;;8.50;77.50;;;;;;4876645;29;20481;-75
2021/12/23 07:22:03;;;;;;;22.80;17.50;;;8.50;77.70;;;;;;4876308;29;20029;-76
2021/12/23 07:24:29;;;;;;;22.80;17.80;;;8.50;77.80;;;;;;4880221;29;20096;-75
2021/12/23 07:26:55;;;;;;;22.90;17.67;;;8.50;77.90;;;;;;4881501;29;20025;-75
2021/12/23 07:29:20;;;;;;;23.73;16.90;;;8.60;77.60;;;;;;4880010;29;20123;-74
2021/12/23 07:31:46;;;;;;;21.88;16.80;;;8.50;75.40;;;;;;4879953;29;20029;-75
2021/12/23 07:34:12;;;;;;;22.63;16.92;;;8.50;75.70;;;;;;4881114;29;20497;-74
2021/12/23 07:36:37;;;;;;;20.25;16.67;;;8.50;75.80;;;;;;4880136;29;20118;-74
2021/12/23 07:39:08;;;;;;;20.65;16.35;;;8.50;76.30;;;;;;4881362;29;20069;-75
2021/12/23 07:41:34;;;;;;;20.52;16.25;;;8.50;76.80;;;;;;4880006;29;20115;-73
2021/12/23 07:44:04;;;;;;;20.25;15.82;;;8.50;77.10;;;;;;4879857;29;20553;-74
2021/12/23 07:46:35;;;;;;;19.35;15.70;;;8.50;77.30;;;;;;4881079;29;20032;-74
2021/12/23 07:49:02;;;;;;;19.50;16.07;;;8.50;77.60;;;;;;4881088;29;20829;-74
2021/12/23 07:51:28;;;;;;;20.33;16.60;;;8.50;77.70;;;;;;4880966;29;20025;-74
2021/12/23 07:53:54;;;;;;;19.85;15.85;;;8.50;77.80;;;;;;4878289;29;20017;-75
2021/12/23 07:56:21;;;;;;;20.42;15.63;;;8.50;78.00;;;;;;4879802;29;20037;-74
2021/12/23 07:58:47;;;;;;;20.65;16.17;;;8.60;78.10;;;;;;4880891;29;20088;-74
2021/12/23 08:01:12;;;;;;;19.55;15.80;;;8.50;78.10;;;;;;4881032;29;20041;-75
2021/12/23 08:03:38;;;;;;;19.38;15.77;;;8.50;78.20;;;;;;4879492;29;20505;-76
2021/12/23 08:06:03;;;;;;;20.98;16.17;;;8.50;78.20;;;;;;4879654;29;20525;-74
2021/12/23 08:08:44;;;;;;;19.60;15.90;;;8.50;78.30;;;;;;5110399;27;20398;-78
2021/12/23 08:11:10;;;;;;;19.83;16.05;;;8.50;78.20;;;;;;5109285;28;20089;-76
2021/12/23 08:13:36;;;;;;;20.15;15.65;;;8.50;78.20;;;;;;5108973;28;20392;-76
2021/12/23 08:16:02;;;;;;;19.92;15.98;;;8.50;78.10;;;;;;5109027;28;20389;-76
2021/12/23 08:18:29;;;;;;;20.75;16.33;;;8.50;78.00;;;;;;5110358;28;20107;-75
2021/12/23 08:20:55;;;;;;;22.27;16.70;;;8.50;78.00;;;;;;5110150;28;20453;-77
2021/12/23 08:23:20;;;;;;;19.52;16.67;;;8.60;78.10;;;;;;5110114;28;20055;-76
2021/12/23 08:25:46;;;;;;;20.77;15.90;;;8.50;78.10;;;;;;5110013;28;20104;-77
2021/12/23 08:28:12;;;;;;;20.10;16.08;;;8.50;78.00;;;;;;5110002;28;20056;-77
2021/12/23 08:30:40;;;;;;;20.55;17.15;;;8.50;77.90;;;;;;5108259;28;20024;-77
2021/12/23 08:33:06;;;;;;;20.05;16.73;;;8.50;78.00;;;;;;5110030;28;20080;-75
2021/12/23 08:35:32;;;;;;;19.60;16.75;;;8.50;78.60;;;;;;5109785;28;20023;-75
2021/12/23 08:37:58;;;;;;;21.00;16.58;;;8.50;78.00;;;;;;5109894;28;20036;-77
2021/12/23 08:40:26;;;;;;;20.60;16.30;;;8.50;78.00;;;;;;5108565;28;20030;-76
2021/12/23 08:42:52;;;;;;;21.17;16.60;;;8.50;78.00;;;;;;5108561;28;20118;-76
2021/12/23 08:45:19;;;;;;;21.25;16.20;;;8.50;78.00;;;;;;5109624;28;20024;-75
2021/12/23 08:47:45;;;;;;;19.23;15.73;;;8.50;77.90;;;;;;5108733;28;20028;-75
2021/12/23 08:50:12;;;;;;;19.63;16.58;;;8.50;77.80;;;;;;5109805;28;20377;-76
2021/12/23 08:52:37;;;;;;;19.38;15.98;;;8.50;77.90;;;;;;5109870;28;20024;-75
2021/12/23 08:55:05;;;;;;;19.50;16.02;;;8.50;77.80;;;;;;5109372;28;20031;-75
2021/12/23 08:57:30;;;;;;;20.80;16.33;;;8.50;78.40;;;;;;5108278;28;20088;-75
2021/12/23 08:59:56;;;;;;;21.60;16.77;;;8.50;77.90;;;;;;5108125;28;20028;-75
2021/12/23 09:02:21;;;;;;;20.40;16.38;;;8.50;77.90;;;;;;5108088;28;20028;-75
2021/12/23 09:04:47;;;;;;;18.92;15.88;;;8.50;77.90;;;;;;5109132;28;20500;-76
2021/12/23 09:07:13;;;;;;;19.40;15.45;;;8.50;77.90;;;;;;5107895;28;20035;-75
2021/12/23 09:09:38;;;;;;;20.45;16.25;;;8.50;77.90;;;;;;5108129;28;20020;-75
2021/12/23 09:12:07;;;;;;;21.67;15.98;;;8.50;78.00;;;;;;5109296;28;20491;-75
2021/12/23 09:14:33;;;;;;;20.02;16.17;;;8.50;78.00;;;;;;5108962;28;20012;-75
2021/12/23 09:16:59;;;;;;;19.30;16.05;;;8.50;78.10;;;;;;5109161;28;20024;-75
2021/12/23 09:19:25;;;;;;;18.85;15.18;;;8.50;78.20;;;;;;5099183;28;20034;-76
2021/12/23 09:21:50;;;;;;;18.30;16.23;;;8.50;78.30;;;;;;5094240;28;20479;-75
2021/12/23 09:24:16;;;;;;;18.08;14.80;;;8.50;78.30;;;;;;5095233;28;20070;-76
2021/12/23 09:27:56;;;;;;;20.00;16.00;;;8.50;78.40;;;;;;5095337;28;20521;-75
2021/12/23 09:34:54;;;;;;;22.02;15.68;;;8.50;77.00;;;;;;5095084;28;20032;-76
2021/12/23 09:37:20;;;;;;;25.15;15.80;;;8.50;76.00;;;;;;5092539;28;20393;-75
2021/12/23 09:39:52;;;;;;;31.77;16.40;;;8.50;76.90;;;;;;5084066;28;20033;-80
2021/12/23 09:42:23;;;;;;;23.85;15.88;;;8.50;77.40;;;;;;5070904;28;20129;-75
2021/12/23 09:44:49;;;;;;;19.75;15.25;;;8.50;77.70;;;;;;5069603;28;20029;-75
2021/12/23 09:47:15;;;;;;;19.70;15.63;;;8.50;77.80;;;;;;5070843;28;20036;-75
2021/12/23 09:49:41;;;;;;;19.42;15.13;;;8.50;77.90;;;;;;5071257;28;20029;-75
2021/12/23 09:52:08;;;;;;;20.35;15.45;;;8.50;77.90;;;;;;5071181;28;20025;-79
2021/12/23 09:54:38;;;;;;;21.15;16.08;;;8.40;75.70;;;;;;5071499;28;20027;-77
2021/12/23 09:57:04;;;;;;;20.83;15.50;;;8.40;73.70;;;;;;5069411;28;20028;-75
2021/12/23 09:59:30;;;;;;;21.52;15.65;;;8.30;72.90;;;;;;5070882;28;20490;-75
2021/12/23 10:01:56;;;;;;;22.00;15.68;;;8.40;74.10;;;;;;5070389;28;20036;-75
2021/12/23 10:04:21;;;;;;;21.42;16.08;;;8.40;75.00;;;;;;5069344;28;20035;-74
2021/12/23 10:06:48;;;;;;;19.52;15.18;;;8.40;75.70;;;;;;5068285;28;20032;-79
2021/12/23 10:09:24;;;;;;;20.52;15.57;;;8.40;76.10;;;;;;5070614;28;20021;-76
2021/12/23 10:30:05;;;;;;;19.13;15.25;;;8.50;77.30;;;;;;5069653;28;20039;-77
2021/12/23 10:31:24;;;;;;;18.85;14.65;;;8.50;77.50;;;;;;5068744;28;20076;-76
2021/12/23 10:37:20;;;;;;;20.37;15.40;;;8.50;77.70;;;;;;5070245;28;20037;-75
2021/12/23 10:39:53;;;;;;;20.48;15.40;;;8.50;77.70;;;;;;5068618;28;20033;-77
2021/12/23 10:42:27;;;;;;;21.20;15.50;;;8.50;77.60;;;;;;5069758;28;20571;-75
2021/12/23 10:44:59;;;;;;;20.25;14.98;;;8.50;77.60;;;;;;5069481;28;20024;-77
2021/12/23 10:47:28;;;;;;;18.85;14.52;;;8.50;77.50;;;;;;5069753;28;20504;-76
2021/12/23 10:49:59;;;;;;;20.52;15.38;;;8.50;77.70;;;;;;5070023;28;20069;-75
2021/12/23 10:52:29;;;;;;;20.70;15.50;;;8.50;77.10;;;;;;5069271;28;20512;-77
2021/12/23 11:00:27;;;;;;;21.08;15.15;;;8.50;77.10;;;;;;5069895;28;20039;-76
2021/12/23 11:03:04;;;;;;;19.13;14.70;;;8.50;77.10;;;;;;5068065;28;20078;-77
2021/12/23 11:05:35;;;;;;;22.35;15.50;;;8.50;77.10;;;;;;5069502;28;20016;-75
2021/12/23 11:38:19;;;;;;;22.02;15.52;;;8.50;76.70;;;;;;5068783;28;20029;-76
2021/12/23 11:45:48;;;;;;;19.15;15.38;;;8.40;76.70;;;;;;5069146;28;20028;-74
2021/12/23 11:48:15;;;;;;;21.25;15.02;;;8.40;76.80;;;;;;5068876;28;20035;-77
2021/12/23 11:50:53;;;;;;;20.60;15.15;;;8.50;76.90;;;;;;5069030;28;20553;-75
2021/12/23 11:53:24;;;;;;;19.50;15.20;;;8.40;76.80;;;;;;5067712;28;20377;-74
2021/12/23 11:55:51;;;;;;;19.23;14.77;;;8.40;76.90;;;;;;5068936;28;20043;-77
2021/12/23 11:58:22;;;;;;;18.83;14.55;;;8.40;76.70;;;;;;5081557;28;20028;-74
2021/12/23 12:01:05;;;;;;;19.27;14.70;;;8.40;76.70;;;;;;5087670;28;20091;-77
2021/12/23 12:03:30;;;;;;;21.02;15.35;;;8.40;76.70;;;;;;5089022;28;20115;-75
2021/12/23 12:06:13;;;;;;;20.90;15.02;;;8.40;76.80;;;;;;5087590;28;20119;-75
2021/12/23 12:08:39;;;;;;;20.15;15.00;;;8.40;76.90;;;;;;5087150;28;20024;-76
2021/12/23 12:11:17;;;;;;;20.40;14.60;;;8.50;77.10;;;;;;5088532;28;20031;-75
2021/12/23 12:13:43;;;;;;;19.75;14.77;;;8.50;77.10;;;;;;5088551;28;20698;-75
2021/12/23 12:18:52;;;;;;;19.90;15.52;;;8.50;77.20;;;;;;5090876;28;20047;-84
2021/12/23 12:21:24;;;;;;;19.63;15.40;;;8.50;77.00;;;;;;5075250;28;20020;-81
2021/12/23 12:24:18;;;;;;;20.27;15.02;;;8.50;77.00;;;;;;5074319;28;20427;-80
2021/12/23 12:27:10;;;;;;;18.92;14.63;;;8.50;76.70;;;;;;5072905;28;20120;-80
2021/12/23 12:29:38;;;;;;;20.02;14.48;;;8.60;76.60;;;;;;5069440;28;20035;-77
2021/12/23 12:32:04;;;;;;;22.02;15.15;;;8.50;76.40;;;;;;5072277;28;20031;-80
2021/12/23 12:34:32;;;;;;;22.70;15.40;;;8.60;76.10;;;;;;5072329;28;20100;-81
2021/12/23 12:36:59;;;;;;;20.77;14.45;;;8.60;75.90;;;;;;5090710;28;20091;-81
2021/12/23 12:39:31;;;;;;;25.25;16.15;;;8.60;75.90;;;;;;5072286;28;20073;-81
2021/12/23 12:42:04;;;;;;;20.02;15.02;;;8.60;75.80;;;;;;5072471;28;20114;-81
2021/12/23 12:44:59;;;;;;;19.95;14.32;;;8.60;75.90;;;;;;5072994;28;20119;-80
2021/12/23 12:47:31;;;;;;;22.20;14.07;;;8.60;75.80;;;;;;5081368;28;20051;-82
2021/12/23 12:50:13;;;;;;;21.52;15.32;;;8.60;75.80;;;;;;5093623;28;20052;-82
2021/12/23 12:52:43;;;;;;;20.83;14.80;;;8.60;75.70;;;;;;5092647;28;20016;-82
2021/12/23 12:55:15;;;;;;;22.25;15.25;;;8.60;75.80;;;;;;5096369;28;20047;-82
2021/12/23 12:57:45;;;;;;;;;;;8.60;75.80;;;;;;5061696;28;20027;-80
2021/12/23 13:00:20;;;;;;;19.77;14.00;;;8.60;75.80;;;;;;5057650;28;20000;-82
2021/12/23 13:02:54;;;;;;;20.50;14.48;;;8.60;75.80;;;;;;5055833;28;20393;-80
2021/12/23 13:05:29;;;;;;;19.95;14.27;;;8.60;75.80;;;;;;5055997;28;20366;-81
2021/12/23 13:07:56;;;;;;;20.55;14.65;;;8.60;75.70;;;;;;5055112;28;20123;-77
2021/12/23 13:10:29;;;;;;;20.40;14.27;;;8.60;75.70;;;;;;5055501;28;20021;-82
2021/12/23 13:12:57;;;;;;;19.35;13.73;;;8.60;75.70;;;;;;5055233;28;20355;-81
2021/12/23 13:15:29;;;;;;;19.85;14.95;;;8.60;75.80;;;;;;5055832;28;20020;-79
2021/12/23 13:18:18;;;;;;;18.42;13.73;;;8.60;75.90;;;;;;5054913;28;20123;-81
2021/12/23 13:20:55;;;;;;;19.35;14.05;;;8.50;75.90;;;;;;5055232;28;20576;-77
2021/12/23 13:23:33;;;;;;;18.80;13.32;;;8.50;76.40;;;;;;5055630;28;20025;-78
2021/12/23 13:26:05;;;;;;;18.73;14.00;;;8.50;75.90;;;;;;5055442;28;20024;-81
2021/12/23 13:28:38;;;;;;;19.00;13.90;;;8.50;76.10;;;;;;5073243;28;20164;-79
2021/12/23 13:31:08;;;;;;;19.35;13.80;;;8.50;76.10;;;;;;5056127;28;20385;-77
2021/12/23 13:33:43;;;;;;;18.73;13.70;;;8.50;76.00;;;;;;5072232;28;20020;-75
2021/12/23 13:36:29;;;;;;;18.60;13.30;;;8.60;76.30;;;;;;5052906;28;20017;-76
2021/12/23 13:39:07;;;;;;;19.05;14.15;;;8.50;76.30;;;;;;5065025;28;20054;-77
2021/12/23 13:41:48;;;;;;;18.58;12.90;;;8.50;76.30;;;;;;5091386;28;20044;-75
2021/12/23 13:44:14;;;;;;;18.88;14.18;;;8.60;76.40;;;;;;5072520;28;20018;-77
2021/12/23 13:46:40;;;;;;;19.67;14.02;;;8.50;76.30;;;;;;5072679;28;20459;-76
2021/12/23 13:49:07;;;;;;;16.98;12.70;;;8.50;76.30;;;;;;5072965;28;20440;-77
2021/12/23 13:51:39;;;;;;;18.73;13.77;;;8.50;76.30;;;;;;5073034;28;20024;-76
2021/12/23 13:54:13;;;;;;;18.45;13.25;;;8.50;76.30;;;;;;5072470;28;20022;-77
2021/12/23 13:56:43;;;;;;;19.73;12.80;;;8.50;76.20;;;;;;5072747;28;20016;-76
2021/12/23 13:59:13;;;;;;;20.67;13.18;;;8.60;76.40;;;;;;5090633;28;20087;-77
2021/12/23 14:02:01;;;;;;;18.42;13.07;;;8.50;76.40;;;;;;5072070;28;20020;-76
2021/12/23 14:04:33;;;;;;;19.08;12.85;;;8.60;76.40;;;;;;5091114;28;20020;-79